sensor_id;sensor_type;location;lat;lon;timestamp;temperature;humidity
15959;DHT22;8078;47.822;9.402;2023-11-22T00:00:16;4.40;99.90
15959;DHT22;8078;47.822;9.402;2023-11-22T00:02:41;4.40;99.90
15959;DHT22;8078;47.822;9.402;2023-11-22T00:05:07;4.30;99.90
15959;DHT22;8078;47.822;9.402;2023-11-22T00:07:33;4.30;99.90
15959;DHT22;8078;47.822;9.402;2023-11-22T00:09:58;4.30;99.90
15959;DHT22;8078;47.822;9.402;2023-11-22T00:12:24;4.30;99.90
15959;DHT22;8078;47.822;9.402;2023-11-22T00:14:50;4.30;99.90
15959;DHT22;8078;47.822;9.402;2023-11-22T00:17:16;4.30;99.90
15959;DHT22;8078;47.822;9.402;2023-11-22T00:19:45;4.30;99.90
15959;DHT22;8078;47.822;9.402;2023-11-22T00:22:11;4.20;99.90
15959;DHT22;8078;47.822;9.402;2023-11-22T00:24:40;4.20;99.90
15959;DHT22;8078;47.822;9.402;2023-11-22T00:27:06;4.20;99.90
15959;DHT22;8078;47.822;9.402;2023-11-22T00:29:31;4.20;99.90
15959;DHT22;8078;47.822;9.402;2023-11-22T00:31:57;4.30;99.90
15959;DHT22;8078;47.822;9.402;2023-11-22T00:34:24;4.40;99.90
15959;DHT22;8078;47.822;9.402;2023-11-22T00:36:49;4.30;99.90
15959;DHT22;8078;47.822;9.402;2023-11-22T00:39:16;4.30;99.90
15959;DHT22;8078;47.822;9.402;2023-11-22T00:41:42;4.30;99.90
15959;DHT22;8078;47.822;9.402;2023-11-22T00:44:08;4.30;99.90
15959;DHT22;8078;47.822;9.402;2023-11-22T00:46:33;4.30;99.90
15959;DHT22;8078;47.822;9.402;2023-11-22T00:48:59;4.30;99.90
15959;DHT22;8078;47.822;9.402;2023-11-22T00:51:24;4.40;99.90
15959;DHT22;8078;47.822;9.402;2023-11-22T00:53:50;4.30;99.90
15959;DHT22;8078;47.822;9.402;2023-11-22T00:56:16;4.40;99.90
15959;DHT22;8078;47.822;9.402;2023-11-22T00:58:42;4.40;99.90
15959;DHT22;8078;47.822;9.402;2023-11-22T01:01:08;4.40;99.90
15959;DHT22;8078;47.822;9.402;2023-11-22T01:03:33;4.50;99.90
15959;DHT22;8078;47.822;9.402;2023-11-22T01:06:00;4.50;99.90
15959;DHT22;8078;47.822;9.402;2023-11-22T01:08:26;4.50;99.90
15959;DHT22;8078;47.822;9.402;2023-11-22T01:10:51;4.50;99.90
15959;DHT22;8078;47.822;9.402;2023-11-22T01:13:17;4.50;99.90
15959;DHT22;8078;47.822;9.402;2023-11-22T01:15:43;4.50;99.90
15959;DHT22;8078;47.822;9.402;2023-11-22T01:18:10;4.40;99.90
15959;DHT22;8078;47.822;9.402;2023-11-22T01:20:35;4.40;99.90
15959;DHT22;8078;47.822;9.402;2023-11-22T01:23:01;4.50;99.90
15959;DHT22;8078;47.822;9.402;2023-11-22T01:25:27;4.50;99.90
15959;DHT22;8078;47.822;9.402;2023-11-22T01:27:53;4.50;99.90
15959;DHT22;8078;47.822;9.402;2023-11-22T01:30:19;4.50;99.90
15959;DHT22;8078;47.822;9.402;2023-11-22T01:32:44;4.50;99.90
15959;DHT22;8078;47.822;9.402;2023-11-22T01:35:10;4.50;99.90
15959;DHT22;8078;47.822;9.402;2023-11-22T01:37:36;4.50;99.90
15959;DHT22;8078;47.822;9.402;2023-11-22T01:40:02;4.50;99.90
15959;DHT22;8078;47.822;9.402;2023-11-22T01:42:29;4.50;99.90
15959;DHT22;8078;47.822;9.402;2023-11-22T01:44:55;4.50;99.90
15959;DHT22;8078;47.822;9.402;2023-11-22T01:47:21;4.50;99.90
15959;DHT22;8078;47.822;9.402;2023-11-22T01:49:47;4.50;99.90
15959;DHT22;8078;47.822;9.402;2023-11-22T01:52:13;4.50;99.90
15959;DHT22;8078;47.822;9.402;2023-11-22T01:54:39;4.50;99.90
15959;DHT22;8078;47.822;9.402;2023-11-22T01:57:05;4.50;99.90
15959;DHT22;8078;47.822;9.402;2023-11-22T01:59:34;4.50;99.90
15959;DHT22;8078;47.822;9.402;2023-11-22T02:02:00;4.50;99.90
15959;DHT22;8078;47.822;9.402;2023-11-22T02:04:25;4.60;99.90
15959;DHT22;8078;47.822;9.402;2023-11-22T02:06:52;4.50;99.90
15959;DHT22;8078;47.822;9.402;2023-11-22T02:09:17;4.60;99.90
15959;DHT22;8078;47.822;9.402;2023-11-22T02:11:44;4.60;99.90
15959;DHT22;8078;47.822;9.402;2023-11-22T02:14:14;4.50;99.90
15959;DHT22;8078;47.822;9.402;2023-11-22T02:16:40;4.50;99.90
15959;DHT22;8078;47.822;9.402;2023-11-22T02:19:08;4.50;99.90
15959;DHT22;8078;47.822;9.402;2023-11-22T02:21:37;4.50;99.90
15959;DHT22;8078;47.822;9.402;2023-11-22T02:24:02;4.50;99.90
15959;DHT22;8078;47.822;9.402;2023-11-22T02:26:28;4.50;99.90
15959;DHT22;8078;47.822;9.402;2023-11-22T02:28:54;4.60;99.90
15959;DHT22;8078;47.822;9.402;2023-11-22T02:31:19;4.50;99.90
15959;DHT22;8078;47.822;9.402;2023-11-22T02:33:45;4.60;99.90
15959;DHT22;8078;47.822;9.402;2023-11-22T02:36:12;4.50;99.90
15959;DHT22;8078;47.822;9.402;2023-11-22T02:38:37;4.50;99.90
15959;DHT22;8078;47.822;9.402;2023-11-22T02:41:03;4.50;99.90
15959;DHT22;8078;47.822;9.402;2023-11-22T02:43:30;4.50;99.90
15959;DHT22;8078;47.822;9.402;2023-11-22T02:45:55;4.50;99.90
15959;DHT22;8078;47.822;9.402;2023-11-22T02:48:21;4.60;99.90
15959;DHT22;8078;47.822;9.402;2023-11-22T02:50:48;4.50;99.90
15959;DHT22;8078;47.822;9.402;2023-11-22T02:53:14;4.60;99.90
15959;DHT22;8078;47.822;9.402;2023-11-22T02:55:40;4.50;99.90
15959;DHT22;8078;47.822;9.402;2023-11-22T02:58:06;4.60;99.90
15959;DHT22;8078;47.822;9.402;2023-11-22T03:00:32;4.60;99.90
15959;DHT22;8078;47.822;9.402;2023-11-22T03:03:00;4.60;99.90
15959;DHT22;8078;47.822;9.402;2023-11-22T03:05:25;4.50;99.90
15959;DHT22;8078;47.822;9.402;2023-11-22T03:07:51;4.60;99.90
15959;DHT22;8078;47.822;9.402;2023-11-22T03:10:17;4.60;99.90
15959;DHT22;8078;47.822;9.402;2023-11-22T03:12:43;4.50;99.90
15959;DHT22;8078;47.822;9.402;2023-11-22T03:15:09;4.60;99.90
15959;DHT22;8078;47.822;9.402;2023-11-22T03:17:35;4.60;99.90
15959;DHT22;8078;47.822;9.402;2023-11-22T03:20:00;4.50;99.90
15959;DHT22;8078;47.822;9.402;2023-11-22T03:22:27;4.50;99.90
15959;DHT22;8078;47.822;9.402;2023-11-22T03:24:56;4.50;99.90
15959;DHT22;8078;47.822;9.402;2023-11-22T03:27:21;4.50;99.90
15959;DHT22;8078;47.822;9.402;2023-11-22T03:29:48;4.50;99.90
15959;DHT22;8078;47.822;9.402;2023-11-22T03:32:14;4.50;99.90
15959;DHT22;8078;47.822;9.402;2023-11-22T03:34:40;4.40;99.90
15959;DHT22;8078;47.822;9.402;2023-11-22T03:37:05;4.50;99.90
15959;DHT22;8078;47.822;9.402;2023-11-22T03:39:31;4.50;99.90
15959;DHT22;8078;47.822;9.402;2023-11-22T03:41:56;4.50;99.90
15959;DHT22;8078;47.822;9.402;2023-11-22T03:44:22;4.50;99.90
15959;DHT22;8078;47.822;9.402;2023-11-22T03:46:48;4.40;99.90
15959;DHT22;8078;47.822;9.402;2023-11-22T03:49:14;4.40;99.90
15959;DHT22;8078;47.822;9.402;2023-11-22T03:51:40;4.40;99.90
15959;DHT22;8078;47.822;9.402;2023-11-22T03:54:06;4.40;99.90
15959;DHT22;8078;47.822;9.402;2023-11-22T03:56:32;4.40;99.90
15959;DHT22;8078;47.822;9.402;2023-11-22T03:58:59;4.40;99.90
15959;DHT22;8078;47.822;9.402;2023-11-22T04:01:24;4.30;99.90
15959;DHT22;8078;47.822;9.402;2023-11-22T04:03:50;4.40;99.90
15959;DHT22;8078;47.822;9.402;2023-11-22T04:06:17;4.30;99.90
15959;DHT22;8078;47.822;9.402;2023-11-22T04:08:45;4.30;99.90
15959;DHT22;8078;47.822;9.402;2023-11-22T04:11:14;4.30;99.90
15959;DHT22;8078;47.822;9.402;2023-11-22T04:13:40;4.30;99.90
15959;DHT22;8078;47.822;9.402;2023-11-22T04:16:07;4.30;99.90
15959;DHT22;8078;47.822;9.402;2023-11-22T04:18:41;4.20;99.90
15959;DHT22;8078;47.822;9.402;2023-11-22T04:21:10;4.30;99.90
15959;DHT22;8078;47.822;9.402;2023-11-22T04:23:35;4.30;99.90
15959;DHT22;8078;47.822;9.402;2023-11-22T04:26:04;4.20;99.90
15959;DHT22;8078;47.822;9.402;2023-11-22T04:28:32;4.20;99.90
15959;DHT22;8078;47.822;9.402;2023-11-22T04:30:59;4.30;99.90
15959;DHT22;8078;47.822;9.402;2023-11-22T04:33:24;4.30;99.90
15959;DHT22;8078;47.822;9.402;2023-11-22T04:35:50;4.20;99.90
15959;DHT22;8078;47.822;9.402;2023-11-22T04:38:16;4.20;99.90
15959;DHT22;8078;47.822;9.402;2023-11-22T04:40:43;4.20;99.90
15959;DHT22;8078;47.822;9.402;2023-11-22T04:43:09;4.10;99.90
15959;DHT22;8078;47.822;9.402;2023-11-22T04:45:34;4.10;99.90
15959;DHT22;8078;47.822;9.402;2023-11-22T04:48:00;4.00;99.90
15959;DHT22;8078;47.822;9.402;2023-11-22T04:50:26;4.00;99.90
15959;DHT22;8078;47.822;9.402;2023-11-22T04:52:51;4.00;99.90
15959;DHT22;8078;47.822;9.402;2023-11-22T04:55:17;4.00;99.90
15959;DHT22;8078;47.822;9.402;2023-11-22T04:57:45;4.00;99.90
15959;DHT22;8078;47.822;9.402;2023-11-22T05:00:11;4.00;99.90
15959;DHT22;8078;47.822;9.402;2023-11-22T05:02:38;4.00;99.90
15959;DHT22;8078;47.822;9.402;2023-11-22T05:05:03;3.90;99.90
15959;DHT22;8078;47.822;9.402;2023-11-22T05:07:29;3.80;99.90
15959;DHT22;8078;47.822;9.402;2023-11-22T05:09:55;3.80;99.90
15959;DHT22;8078;47.822;9.402;2023-11-22T05:12:20;3.70;99.90
15959;DHT22;8078;47.822;9.402;2023-11-22T05:14:46;3.70;99.90
15959;DHT22;8078;47.822;9.402;2023-11-22T05:17:12;3.60;99.90
15959;DHT22;8078;47.822;9.402;2023-11-22T05:19:38;3.60;99.90
15959;DHT22;8078;47.822;9.402;2023-11-22T05:22:04;3.50;99.90
15959;DHT22;8078;47.822;9.402;2023-11-22T05:24:29;3.40;99.90
15959;DHT22;8078;47.822;9.402;2023-11-22T05:26:55;3.20;99.90
15959;DHT22;8078;47.822;9.402;2023-11-22T05:29:21;3.20;99.90
15959;DHT22;8078;47.822;9.402;2023-11-22T05:31:47;3.10;99.90
15959;DHT22;8078;47.822;9.402;2023-11-22T05:34:12;3.10;99.90
15959;DHT22;8078;47.822;9.402;2023-11-22T05:36:38;3.00;99.90
15959;DHT22;8078;47.822;9.402;2023-11-22T05:39:04;3.00;99.90
15959;DHT22;8078;47.822;9.402;2023-11-22T05:41:29;2.90;99.90
15959;DHT22;8078;47.822;9.402;2023-11-22T05:43:55;2.90;99.90
15959;DHT22;8078;47.822;9.402;2023-11-22T05:46:22;2.90;99.90
15959;DHT22;8078;47.822;9.402;2023-11-22T05:48:50;2.80;99.90
15959;DHT22;8078;47.822;9.402;2023-11-22T05:51:16;2.70;99.90
15959;DHT22;8078;47.822;9.402;2023-11-22T05:53:42;2.70;99.90
15959;DHT22;8078;47.822;9.402;2023-11-22T05:56:08;2.60;99.90
15959;DHT22;8078;47.822;9.402;2023-11-22T05:58:34;2.60;99.90
15959;DHT22;8078;47.822;9.402;2023-11-22T06:01:06;2.50;99.90
15959;DHT22;8078;47.822;9.402;2023-11-22T06:03:33;2.50;99.90
15959;DHT22;8078;47.822;9.402;2023-11-22T06:05:59;2.50;99.90
15959;DHT22;8078;47.822;9.402;2023-11-22T06:08:24;2.50;99.90
15959;DHT22;8078;47.822;9.402;2023-11-22T06:10:50;2.40;99.90
15959;DHT22;8078;47.822;9.402;2023-11-22T06:13:17;2.40;99.90
15959;DHT22;8078;47.822;9.402;2023-11-22T06:15:43;2.30;99.90
15959;DHT22;8078;47.822;9.402;2023-11-22T06:18:09;2.30;99.90
15959;DHT22;8078;47.822;9.402;2023-11-22T06:20:34;2.30;99.90
15959;DHT22;8078;47.822;9.402;2023-11-22T06:23:00;2.20;99.90
15959;DHT22;8078;47.822;9.402;2023-11-22T06:25:25;2.20;99.90
15959;DHT22;8078;47.822;9.402;2023-11-22T06:27:52;2.20;99.90
15959;DHT22;8078;47.822;9.402;2023-11-22T06:30:18;2.30;99.90
15959;DHT22;8078;47.822;9.402;2023-11-22T06:32:43;2.20;99.90
15959;DHT22;8078;47.822;9.402;2023-11-22T06:35:10;2.20;99.90
15959;DHT22;8078;47.822;9.402;2023-11-22T06:37:36;2.20;99.90
15959;DHT22;8078;47.822;9.402;2023-11-22T06:40:03;2.20;99.90
15959;DHT22;8078;47.822;9.402;2023-11-22T06:42:29;2.20;99.90
15959;DHT22;8078;47.822;9.402;2023-11-22T06:44:54;2.20;99.90
15959;DHT22;8078;47.822;9.402;2023-11-22T06:47:23;2.20;99.90
15959;DHT22;8078;47.822;9.402;2023-11-22T06:49:49;2.20;99.90
15959;DHT22;8078;47.822;9.402;2023-11-22T06:52:14;2.20;99.90
15959;DHT22;8078;47.822;9.402;2023-11-22T06:54:40;2.20;99.90
15959;DHT22;8078;47.822;9.402;2023-11-22T06:57:07;2.20;99.90
15959;DHT22;8078;47.822;9.402;2023-11-22T06:59:33;2.20;99.90
15959;DHT22;8078;47.822;9.402;2023-11-22T07:01:58;2.20;99.90
15959;DHT22;8078;47.822;9.402;2023-11-22T07:04:24;2.20;99.90
15959;DHT22;8078;47.822;9.402;2023-11-22T07:06:49;2.20;99.90
15959;DHT22;8078;47.822;9.402;2023-11-22T07:09:15;2.20;99.90
15959;DHT22;8078;47.822;9.402;2023-11-22T07:11:41;2.20;99.90
15959;DHT22;8078;47.822;9.402;2023-11-22T07:14:09;2.20;99.90
15959;DHT22;8078;47.822;9.402;2023-11-22T07:16:35;2.20;99.90
15959;DHT22;8078;47.822;9.402;2023-11-22T07:19:01;2.20;99.90
15959;DHT22;8078;47.822;9.402;2023-11-22T07:21:32;2.20;99.90
15959;DHT22;8078;47.822;9.402;2023-11-22T07:23:58;2.10;99.90
15959;DHT22;8078;47.822;9.402;2023-11-22T07:26:27;2.10;99.90
15959;DHT22;8078;47.822;9.402;2023-11-22T07:28:55;2.20;99.90
15959;DHT22;8078;47.822;9.402;2023-11-22T07:31:21;2.20;99.90
15959;DHT22;8078;47.822;9.402;2023-11-22T07:33:48;2.20;99.90
15959;DHT22;8078;47.822;9.402;2023-11-22T07:36:13;2.20;99.90
15959;DHT22;8078;47.822;9.402;2023-11-22T07:38:41;2.20;99.90
15959;DHT22;8078;47.822;9.402;2023-11-22T07:41:07;2.20;99.90
15959;DHT22;8078;47.822;9.402;2023-11-22T07:43:32;2.10;99.90
15959;DHT22;8078;47.822;9.402;2023-11-22T07:45:58;2.10;99.90
15959;DHT22;8078;47.822;9.402;2023-11-22T07:48:25;2.00;99.90
15959;DHT22;8078;47.822;9.402;2023-11-22T07:50:51;2.00;99.90
15959;DHT22;8078;47.822;9.402;2023-11-22T07:53:18;1.90;99.90
15959;DHT22;8078;47.822;9.402;2023-11-22T07:55:44;1.80;99.90
15959;DHT22;8078;47.822;9.402;2023-11-22T07:58:09;1.70;99.90
15959;DHT22;8078;47.822;9.402;2023-11-22T08:00:36;1.70;99.90
15959;DHT22;8078;47.822;9.402;2023-11-22T08:03:08;1.70;99.90
15959;DHT22;8078;47.822;9.402;2023-11-22T08:05:34;1.70;99.90
15959;DHT22;8078;47.822;9.402;2023-11-22T08:08:05;1.60;99.90
15959;DHT22;8078;47.822;9.402;2023-11-22T08:10:34;1.60;99.90
15959;DHT22;8078;47.822;9.402;2023-11-22T08:13:00;1.60;99.90
15959;DHT22;8078;47.822;9.402;2023-11-22T08:15:26;1.60;99.90
15959;DHT22;8078;47.822;9.402;2023-11-22T08:17:51;1.60;99.90
15959;DHT22;8078;47.822;9.402;2023-11-22T08:20:17;1.50;99.90
15959;DHT22;8078;47.822;9.402;2023-11-22T08:22:44;1.50;99.90
15959;DHT22;8078;47.822;9.402;2023-11-22T08:25:11;1.40;99.90
15959;DHT22;8078;47.822;9.402;2023-11-22T08:27:39;1.50;99.90
15959;DHT22;8078;47.822;9.402;2023-11-22T08:30:06;1.60;99.90
15959;DHT22;8078;47.822;9.402;2023-11-22T08:32:35;1.60;99.90
15959;DHT22;8078;47.822;9.402;2023-11-22T08:35:00;1.60;99.90
15959;DHT22;8078;47.822;9.402;2023-11-22T08:37:26;1.60;99.90
15959;DHT22;8078;47.822;9.402;2023-11-22T08:39:52;1.50;99.90
15959;DHT22;8078;47.822;9.402;2023-11-22T08:42:18;1.50;99.90
15959;DHT22;8078;47.822;9.402;2023-11-22T08:44:43;1.50;99.90
15959;DHT22;8078;47.822;9.402;2023-11-22T08:47:09;1.50;99.90
15959;DHT22;8078;47.822;9.402;2023-11-22T08:49:35;1.50;99.90
15959;DHT22;8078;47.822;9.402;2023-11-22T08:52:00;1.40;99.90
15959;DHT22;8078;47.822;9.402;2023-11-22T08:54:28;1.40;99.90
15959;DHT22;8078;47.822;9.402;2023-11-22T08:56:55;1.40;99.90
15959;DHT22;8078;47.822;9.402;2023-11-22T08:59:23;1.40;99.90
15959;DHT22;8078;47.822;9.402;2023-11-22T09:01:49;1.30;99.90
15959;DHT22;8078;47.822;9.402;2023-11-22T09:04:14;1.30;99.90
15959;DHT22;8078;47.822;9.402;2023-11-22T09:06:41;1.30;99.90
15959;DHT22;8078;47.822;9.402;2023-11-22T09:09:07;1.30;99.90
15959;DHT22;8078;47.822;9.402;2023-11-22T09:11:33;1.30;99.90
15959;DHT22;8078;47.822;9.402;2023-11-22T09:14:00;1.30;99.90
15959;DHT22;8078;47.822;9.402;2023-11-22T09:16:35;1.30;99.90
15959;DHT22;8078;47.822;9.402;2023-11-22T09:19:01;1.20;99.90
15959;DHT22;8078;47.822;9.402;2023-11-22T09:21:28;1.20;99.90
15959;DHT22;8078;47.822;9.402;2023-11-22T09:23:54;1.10;99.90
15959;DHT22;8078;47.822;9.402;2023-11-22T09:26:20;1.10;99.90
15959;DHT22;8078;47.822;9.402;2023-11-22T09:28:45;1.10;99.90
15959;DHT22;8078;47.822;9.402;2023-11-22T09:31:11;1.10;99.90
15959;DHT22;8078;47.822;9.402;2023-11-22T09:33:43;1.10;99.90
15959;DHT22;8078;47.822;9.402;2023-11-22T09:36:09;1.10;99.90
15959;DHT22;8078;47.822;9.402;2023-11-22T09:38:34;1.10;99.90
15959;DHT22;8078;47.822;9.402;2023-11-22T09:41:00;1.10;99.90
15959;DHT22;8078;47.822;9.402;2023-11-22T09:43:28;1.10;99.90
15959;DHT22;8078;47.822;9.402;2023-11-22T09:45:54;1.10;99.90
15959;DHT22;8078;47.822;9.402;2023-11-22T09:48:21;1.20;99.90
15959;DHT22;8078;47.822;9.402;2023-11-22T09:51:08;1.10;99.90
15959;DHT22;8078;47.822;9.402;2023-11-22T09:53:49;1.10;99.90
15959;DHT22;8078;47.822;9.402;2023-11-22T09:56:17;1.00;99.90
15959;DHT22;8078;47.822;9.402;2023-11-22T09:58:44;1.00;99.90
15959;DHT22;8078;47.822;9.402;2023-11-22T10:01:13;1.10;99.90
15959;DHT22;8078;47.822;9.402;2023-11-22T10:03:39;1.20;99.90
15959;DHT22;8078;47.822;9.402;2023-11-22T10:06:06;1.20;99.90
15959;DHT22;8078;47.822;9.402;2023-11-22T10:08:32;1.10;99.90
15959;DHT22;8078;47.822;9.402;2023-11-22T10:11:07;1.10;99.90
15959;DHT22;8078;47.822;9.402;2023-11-22T10:13:33;1.30;99.90
15959;DHT22;8078;47.822;9.402;2023-11-22T10:16:14;1.60;99.90
15959;DHT22;8078;47.822;9.402;2023-11-22T10:18:48;1.90;99.90
15959;DHT22;8078;47.822;9.402;2023-11-22T10:21:27;2.00;99.90
15959;DHT22;8078;47.822;9.402;2023-11-22T10:23:57;2.00;99.90
15959;DHT22;8078;47.822;9.402;2023-11-22T10:26:25;2.10;99.90
15959;DHT22;8078;47.822;9.402;2023-11-22T10:28:54;2.00;99.90
15959;DHT22;8078;47.822;9.402;2023-11-22T10:31:20;1.90;99.90
15959;DHT22;8078;47.822;9.402;2023-11-22T10:33:47;1.90;99.90
15959;DHT22;8078;47.822;9.402;2023-11-22T10:36:14;1.80;99.90
15959;DHT22;8078;47.822;9.402;2023-11-22T10:38:41;1.80;99.90
15959;DHT22;8078;47.822;9.402;2023-11-22T10:41:09;1.60;99.90
15959;DHT22;8078;47.822;9.402;2023-11-22T10:43:35;1.70;99.90
15959;DHT22;8078;47.822;9.402;2023-11-22T10:46:05;1.90;99.90
15959;DHT22;8078;47.822;9.402;2023-11-22T10:48:32;1.90;99.90
15959;DHT22;8078;47.822;9.402;2023-11-22T10:51:03;1.70;99.90
15959;DHT22;8078;47.822;9.402;2023-11-22T10:53:32;1.70;99.90
15959;DHT22;8078;47.822;9.402;2023-11-22T10:56:11;1.70;99.90
15959;DHT22;8078;47.822;9.402;2023-11-22T10:58:55;1.90;99.90
15959;DHT22;8078;47.822;9.402;2023-11-22T11:01:24;2.00;97.50
15959;DHT22;8078;47.822;9.402;2023-11-22T11:04:09;2.10;49.30
15959;DHT22;8078;47.822;9.402;2023-11-22T11:06:36;2.10;10.70
15959;DHT22;8078;47.822;9.402;2023-11-22T11:09:03;1.90;1.00
15959;DHT22;8078;47.822;9.402;2023-11-22T11:11:32;1.80;1.00
15959;DHT22;8078;47.822;9.402;2023-11-22T11:13:58;1.70;1.00
15959;DHT22;8078;47.822;9.402;2023-11-22T11:16:25;1.70;1.00
15959;DHT22;8078;47.822;9.402;2023-11-22T11:18:52;1.80;1.00
15959;DHT22;8078;47.822;9.402;2023-11-22T11:21:19;1.80;1.00
15959;DHT22;8078;47.822;9.402;2023-11-22T11:23:44;1.80;1.00
15959;DHT22;8078;47.822;9.402;2023-11-22T11:26:19;1.80;1.00
15959;DHT22;8078;47.822;9.402;2023-11-22T11:28:49;1.80;1.00
15959;DHT22;8078;47.822;9.402;2023-11-22T11:31:16;1.80;1.00
15959;DHT22;8078;47.822;9.402;2023-11-22T11:36:31;1.60;1.00
15959;DHT22;8078;47.822;9.402;2023-11-22T11:38:58;1.40;1.00
15959;DHT22;8078;47.822;9.402;2023-11-22T11:41:33;1.40;1.00
15959;DHT22;8078;47.822;9.402;2023-11-22T11:44:02;1.30;1.00
15959;DHT22;8078;47.822;9.402;2023-11-22T11:46:29;1.30;1.00
15959;DHT22;8078;47.822;9.402;2023-11-22T11:48:55;1.40;1.00
15959;DHT22;8078;47.822;9.402;2023-11-22T11:51:25;1.50;1.00
15959;DHT22;8078;47.822;9.402;2023-11-22T11:53:51;1.50;1.00
15959;DHT22;8078;47.822;9.402;2023-11-22T11:56:17;1.70;1.00
15959;DHT22;8078;47.822;9.402;2023-11-22T11:58:44;1.60;1.00
15959;DHT22;8078;47.822;9.402;2023-11-22T12:01:15;1.70;1.00
15959;DHT22;8078;47.822;9.402;2023-11-22T12:03:46;1.60;1.00
15959;DHT22;8078;47.822;9.402;2023-11-22T12:06:16;1.50;1.00
15959;DHT22;8078;47.822;9.402;2023-11-22T12:08:43;1.50;1.00
15959;DHT22;8078;47.822;9.402;2023-11-22T12:11:08;1.50;1.00
15959;DHT22;8078;47.822;9.402;2023-11-22T12:13:36;1.60;1.00
15959;DHT22;8078;47.822;9.402;2023-11-22T12:16:08;1.60;1.00
15959;DHT22;8078;47.822;9.402;2023-11-22T12:18:46;1.60;1.00
15959;DHT22;8078;47.822;9.402;2023-11-22T12:21:16;1.60;1.00
15959;DHT22;8078;47.822;9.402;2023-11-22T12:23:45;1.60;1.00
15959;DHT22;8078;47.822;9.402;2023-11-22T12:26:13;1.60;1.00
15959;DHT22;8078;47.822;9.402;2023-11-22T12:28:42;1.60;1.00
15959;DHT22;8078;47.822;9.402;2023-11-22T12:31:15;1.50;1.00
15959;DHT22;8078;47.822;9.402;2023-11-22T12:33:41;1.50;1.00
15959;DHT22;8078;47.822;9.402;2023-11-22T12:36:09;1.50;1.00
15959;DHT22;8078;47.822;9.402;2023-11-22T12:38:35;1.50;1.00
15959;DHT22;8078;47.822;9.402;2023-11-22T12:41:01;1.40;1.00
15959;DHT22;8078;47.822;9.402;2023-11-22T12:43:29;1.30;1.00
15959;DHT22;8078;47.822;9.402;2023-11-22T12:46:06;1.20;1.00
15959;DHT22;8078;47.822;9.402;2023-11-22T12:48:32;1.10;1.00
15959;DHT22;8078;47.822;9.402;2023-11-22T12:50:59;1.10;1.00
15959;DHT22;8078;47.822;9.402;2023-11-22T12:53:26;1.10;1.00
15959;DHT22;8078;47.822;9.402;2023-11-22T12:55:54;1.20;1.00
15959;DHT22;8078;47.822;9.402;2023-11-22T12:58:22;1.20;1.00
15959;DHT22;8078;47.822;9.402;2023-11-22T13:00:50;1.20;1.00
15959;DHT22;8078;47.822;9.402;2023-11-22T13:03:17;1.10;1.00
15959;DHT22;8078;47.822;9.402;2023-11-22T13:05:44;1.10;1.00
15959;DHT22;8078;47.822;9.402;2023-11-22T13:08:12;1.20;1.00
15959;DHT22;8078;47.822;9.402;2023-11-22T13:10:49;1.10;1.00
15959;DHT22;8078;47.822;9.402;2023-11-22T13:13:23;1.10;1.00
15959;DHT22;8078;47.822;9.402;2023-11-22T13:15:49;1.00;1.00
15959;DHT22;8078;47.822;9.402;2023-11-22T13:18:16;1.00;1.00
15959;DHT22;8078;47.822;9.402;2023-11-22T13:20:42;1.00;1.00
15959;DHT22;8078;47.822;9.402;2023-11-22T13:23:08;1.00;1.00
15959;DHT22;8078;47.822;9.402;2023-11-22T13:25:34;1.00;1.00
15959;DHT22;8078;47.822;9.402;2023-11-22T13:28:00;1.00;1.00
15959;DHT22;8078;47.822;9.402;2023-11-22T13:30:25;1.00;1.00
15959;DHT22;8078;47.822;9.402;2023-11-22T13:33:00;0.90;1.00
15959;DHT22;8078;47.822;9.402;2023-11-22T13:35:28;0.90;1.00
15959;DHT22;8078;47.822;9.402;2023-11-22T13:37:59;0.90;1.00
15959;DHT22;8078;47.822;9.402;2023-11-22T13:40:27;0.90;1.00
15959;DHT22;8078;47.822;9.402;2023-11-22T13:42:56;0.90;1.00
15959;DHT22;8078;47.822;9.402;2023-11-22T13:45:22;0.90;1.00
15959;DHT22;8078;47.822;9.402;2023-11-22T13:47:49;0.90;1.00
15959;DHT22;8078;47.822;9.402;2023-11-22T13:50:16;0.90;1.00
15959;DHT22;8078;47.822;9.402;2023-11-22T13:52:51;0.90;1.00
15959;DHT22;8078;47.822;9.402;2023-11-22T13:55:17;0.90;1.00
15959;DHT22;8078;47.822;9.402;2023-11-22T13:57:53;0.80;1.00
15959;DHT22;8078;47.822;9.402;2023-11-22T14:00:20;0.80;1.00
15959;DHT22;8078;47.822;9.402;2023-11-22T14:02:52;0.70;1.00
15959;DHT22;8078;47.822;9.402;2023-11-22T14:05:18;0.70;1.00
15959;DHT22;8078;47.822;9.402;2023-11-22T14:07:44;0.70;1.00
15959;DHT22;8078;47.822;9.402;2023-11-22T14:13:29;0.60;1.00
15959;DHT22;8078;47.822;9.402;2023-11-22T14:15:54;0.50;1.00
15959;DHT22;8078;47.822;9.402;2023-11-22T14:18:20;0.50;1.00
15959;DHT22;8078;47.822;9.402;2023-11-22T14:20:46;0.50;1.00
15959;DHT22;8078;47.822;9.402;2023-11-22T14:23:11;0.40;1.00
15959;DHT22;8078;47.822;9.402;2023-11-22T14:25:37;0.50;1.00
15959;DHT22;8078;47.822;9.402;2023-11-22T14:28:02;0.40;1.00
15959;DHT22;8078;47.822;9.402;2023-11-22T14:30:28;0.40;1.00
15959;DHT22;8078;47.822;9.402;2023-11-22T14:32:56;0.40;1.00
15959;DHT22;8078;47.822;9.402;2023-11-22T14:35:23;0.40;5.70
15959;DHT22;8078;47.822;9.402;2023-11-22T14:37:49;0.50;28.90
15959;DHT22;8078;47.822;9.402;2023-11-22T14:40:14;0.50;43.80
15959;DHT22;8078;47.822;9.402;2023-11-22T14:42:45;0.40;65.20
15959;DHT22;8078;47.822;9.402;2023-11-22T14:45:13;0.40;57.00
15959;DHT22;8078;47.822;9.402;2023-11-22T14:47:39;0.40;55.30
15959;DHT22;8078;47.822;9.402;2023-11-22T14:50:06;0.40;89.80
15959;DHT22;8078;47.822;9.402;2023-11-22T14:52:33;0.40;94.90
15959;DHT22;8078;47.822;9.402;2023-11-22T14:54:59;0.30;99.90
15959;DHT22;8078;47.822;9.402;2023-11-22T14:57:26;0.30;99.90
15959;DHT22;8078;47.822;9.402;2023-11-22T14:59:52;0.30;99.90
15959;DHT22;8078;47.822;9.402;2023-11-22T15:02:18;0.30;99.90
15959;DHT22;8078;47.822;9.402;2023-11-22T15:04:44;0.30;99.90
15959;DHT22;8078;47.822;9.402;2023-11-22T15:07:10;0.30;99.90
15959;DHT22;8078;47.822;9.402;2023-11-22T15:09:37;0.30;99.90
15959;DHT22;8078;47.822;9.402;2023-11-22T15:12:03;0.30;99.90
15959;DHT22;8078;47.822;9.402;2023-11-22T15:14:30;0.20;99.90
15959;DHT22;8078;47.822;9.402;2023-11-22T15:16:56;0.20;99.90
15959;DHT22;8078;47.822;9.402;2023-11-22T15:19:22;0.20;99.90
15959;DHT22;8078;47.822;9.402;2023-11-22T15:21:50;0.20;99.90
15959;DHT22;8078;47.822;9.402;2023-11-22T15:24:17;0.20;99.90
15959;DHT22;8078;47.822;9.402;2023-11-22T15:26:43;0.20;99.90
15959;DHT22;8078;47.822;9.402;2023-11-22T15:29:08;0.20;99.90
15959;DHT22;8078;47.822;9.402;2023-11-22T15:31:34;0.10;99.90
15959;DHT22;8078;47.822;9.402;2023-11-22T15:34:00;0.10;99.90
15959;DHT22;8078;47.822;9.402;2023-11-22T15:36:26;0.10;99.90
15959;DHT22;8078;47.822;9.402;2023-11-22T15:38:52;0.10;99.90
15959;DHT22;8078;47.822;9.402;2023-11-22T15:41:17;0.10;99.90
15959;DHT22;8078;47.822;9.402;2023-11-22T15:43:43;0.10;99.90
15959;DHT22;8078;47.822;9.402;2023-11-22T15:46:12;0.10;99.90
15959;DHT22;8078;47.822;9.402;2023-11-22T15:48:39;0.10;99.90
15959;DHT22;8078;47.822;9.402;2023-11-22T15:51:04;0.10;99.90
15959;DHT22;8078;47.822;9.402;2023-11-22T15:53:32;0.10;99.90
15959;DHT22;8078;47.822;9.402;2023-11-22T15:55:57;0.00;99.90
15959;DHT22;8078;47.822;9.402;2023-11-22T15:58:23;0.00;99.90
15959;DHT22;8078;47.822;9.402;2023-11-22T16:00:49;0.00;99.90
15959;DHT22;8078;47.822;9.402;2023-11-22T16:03:16;0.10;99.90
15959;DHT22;8078;47.822;9.402;2023-11-22T16:05:44;0.10;99.90
15959;DHT22;8078;47.822;9.402;2023-11-22T16:08:11;0.10;99.90